createdAt,value
2022-08-20T00:00:32.784Z,37.95
2022-08-20T00:03:05.879Z,28.20
2022-08-20T00:05:38.782Z,30.33
2022-08-20T00:08:12.486Z,31.45
2022-08-20T00:10:48.510Z,28.15
2022-08-20T00:13:38.402Z,30.30
2022-08-20T00:16:09.651Z,34.03
2022-08-20T00:18:41.321Z,27.50
2022-08-20T00:21:19.107Z,28.60
2022-08-20T00:23:51.890Z,27.88
2022-08-20T00:26:28.234Z,26.92
2022-08-20T00:28:59.179Z,23.05
2022-08-20T00:31:29.429Z,24.33
2022-08-20T00:33:59.422Z,20.73
2022-08-20T00:36:32.562Z,23.38
2022-08-20T00:39:03.329Z,34.85
2022-08-20T00:41:35.381Z,27.85
2022-08-20T00:44:12.669Z,26.20
2022-08-20T00:46:44.046Z,27.50
2022-08-20T00:49:22.573Z,31.88
2022-08-20T00:51:57.297Z,24.83
2022-08-20T00:54:29.484Z,27.67
2022-08-20T00:57:04.748Z,35.20
2022-08-20T00:59:36.066Z,28.25
2022-08-20T01:02:09.154Z,29.50
2022-08-20T01:04:39.305Z,35.33
2022-08-20T01:07:10.126Z,35.38
2022-08-20T01:09:58.487Z,29.45
2022-08-20T01:12:33.546Z,33.90
2022-08-20T01:15:04.584Z,29.65
2022-08-20T01:17:38.381Z,30.33
2022-08-20T01:20:13.433Z,30.67
2022-08-20T01:23:04.768Z,38.70
2022-08-20T01:25:45.549Z,34.70
2022-08-20T01:28:17.928Z,36.13
2022-08-20T01:30:48.145Z,24.88
2022-08-20T01:33:19.528Z,27.85
2022-08-20T01:35:51.036Z,23.58
2022-08-20T01:38:22.042Z,24.90
2022-08-20T01:41:17.664Z,31.45
2022-08-20T01:43:58.337Z,28.25
2022-08-20T01:46:33.276Z,30.08
2022-08-20T01:49:13.663Z,30.83
2022-08-20T01:51:46.124Z,35.30
2022-08-20T01:54:19.511Z,26.70
2022-08-20T01:57:07.484Z,32.17
2022-08-20T01:59:38.227Z,31.77
2022-08-20T02:02:12.092Z,31.80
2022-08-20T02:04:44.839Z,28.85
2022-08-20T02:07:18.859Z,33.97
2022-08-20T02:09:51.791Z,32.67
2022-08-20T02:12:24.515Z,32.45
2022-08-20T02:15:00.787Z,34.75
2022-08-20T02:17:31.739Z,29.15
2022-08-20T02:20:05.431Z,31.38
2022-08-20T02:22:41.031Z,29.77
2022-08-20T02:25:23.239Z,33.25
2022-08-20T02:27:57.076Z,37.60
2022-08-20T02:30:34.111Z,33.85
2022-08-20T02:33:05.034Z,38.90
2022-08-20T02:35:35.908Z,36.67
2022-08-20T02:38:07.647Z,41.85
2022-08-20T02:40:38.147Z,39.90
2022-08-20T02:43:12.870Z,36.42
2022-08-20T02:45:45.773Z,32.97
2022-08-20T02:48:21.832Z,33.28
2022-08-20T02:50:55.223Z,33.78
2022-08-20T02:53:27.919Z,35.95
2022-08-20T02:55:58.531Z,43.55
2022-08-20T02:58:31.982Z,38.08
2022-08-20T03:01:02.363Z,40.05
2022-08-20T03:03:33.904Z,38.03
2022-08-20T03:06:05.026Z,40.92
2022-08-20T03:08:38.521Z,38.97
2022-08-20T03:11:13.839Z,42.38
2022-08-20T03:13:46.334Z,46.45
2022-08-20T03:16:19.370Z,40.47
2022-08-20T03:18:52.030Z,34.92
2022-08-20T03:21:23.498Z,39.72
2022-08-20T03:23:54.777Z,39.38
2022-08-20T03:26:26.548Z,41.17
2022-08-20T03:29:01.426Z,39.10
2022-08-20T03:31:31.371Z,38.53
2022-08-20T03:34:01.548Z,36.45
2022-08-20T03:36:31.499Z,37.80
2022-08-20T03:39:03.301Z,35.20
2022-08-20T03:41:33.773Z,35.00
2022-08-20T03:44:06.501Z,34.88
2022-08-20T03:46:35.713Z,33.13
2022-08-20T03:49:05.566Z,39.20
2022-08-20T03:51:57.611Z,37.22
2022-08-20T03:54:24.697Z,33.05
2022-08-20T03:57:01.713Z,40.75
2022-08-20T03:59:35.039Z,40.28
2022-08-20T04:02:04.548Z,43.03
2022-08-20T04:04:33.602Z,39.33
2022-08-20T04:07:12.419Z,35.22
2022-08-20T04:09:42.541Z,34.30
2022-08-20T04:12:14.226Z,39.90
2022-08-20T04:14:45.840Z,37.67
2022-08-20T04:17:16.001Z,43.17
2022-08-20T04:19:46.235Z,39.47
2022-08-20T04:22:16.439Z,34.00
2022-08-20T04:24:45.641Z,38.63
2022-08-20T04:27:15.420Z,40.78
2022-08-20T04:29:48.406Z,40.88
2022-08-20T04:32:17.910Z,38.83
2022-08-20T04:34:47.483Z,38.30
2022-08-20T04:37:21.061Z,38.63
2022-08-20T04:40:10.602Z,38.65
2022-08-20T04:42:40.608Z,38.55
2022-08-20T04:45:16.646Z,43.30
2022-08-20T04:47:49.193Z,43.10
2022-08-20T04:50:19.937Z,36.85
2022-08-20T04:52:50.648Z,42.22
2022-08-20T04:55:20.559Z,40.97
2022-08-20T04:57:49.723Z,40.92
2022-08-20T05:00:20.669Z,30.77
2022-08-20T05:02:50.572Z,33.67
2022-08-20T05:05:24.828Z,31.83
2022-08-20T05:07:54.577Z,32.33
2022-08-20T05:10:24.033Z,32.13
2022-08-20T05:12:57.182Z,33.60
2022-08-20T05:15:28.951Z,30.73
2022-08-20T05:18:02.807Z,27.80
2022-08-20T05:20:34.841Z,32.60
2022-08-20T05:23:05.911Z,27.00
2022-08-20T05:25:36.023Z,30.75
2022-08-20T05:28:10.038Z,26.73
2022-08-20T05:30:43.984Z,26.73
2022-08-20T05:33:17.053Z,29.02
2022-08-20T05:35:47.615Z,23.30
2022-08-20T05:38:21.635Z,24.48
2022-08-20T05:40:51.999Z,27.73
2022-08-20T05:43:22.915Z,31.25
2022-08-20T05:45:56.529Z,31.58
2022-08-20T05:48:27.450Z,25.17
2022-08-20T05:50:56.842Z,24.23
2022-08-20T05:53:28.782Z,24.63
2022-08-20T05:55:58.145Z,24.85
2022-08-20T05:58:33.610Z,24.00
2022-08-20T06:01:06.400Z,31.42
2022-08-20T06:03:52.973Z,22.30
2022-08-20T06:06:45.085Z,25.70
2022-08-20T06:09:13.198Z,20.30
2022-08-20T06:11:43.346Z,23.90
2022-08-20T06:14:16.591Z,19.45
2022-08-20T06:16:57.376Z,26.58
2022-08-20T06:19:32.434Z,20.65
2022-08-20T06:22:17.711Z,25.92
2022-08-20T06:24:51.672Z,31.10
2022-08-20T06:27:22.322Z,28.83
2022-08-20T06:29:51.657Z,45.22
2022-08-20T06:32:31.810Z,40.47
2022-08-20T06:35:03.835Z,57.10
2022-08-20T06:37:34.109Z,59.13
2022-08-20T06:40:07.285Z,54.35
2022-08-20T06:42:37.413Z,54.67
2022-08-20T06:45:07.034Z,54.05
2022-08-20T06:47:41.014Z,56.47
2022-08-20T06:50:12.601Z,53.50
2022-08-20T06:52:53.098Z,55.75
2022-08-20T06:55:24.803Z,56.25
2022-08-20T06:58:01.892Z,52.47
2022-08-20T07:00:34.216Z,52.25
2022-08-20T07:03:05.789Z,52.17
2022-08-20T07:05:39.324Z,48.65
2022-08-20T07:08:12.561Z,45.78
2022-08-20T07:10:44.221Z,47.22
2022-08-20T07:13:16.437Z,55.00
2022-08-20T07:15:47.885Z,55.47
2022-08-20T07:18:27.898Z,50.55
2022-08-20T07:20:59.428Z,50.05
2022-08-20T07:23:30.528Z,68.55
2022-08-20T07:26:01.012Z,47.30
2022-08-20T07:28:32.502Z,47.42
2022-08-20T07:31:20.475Z,49.22
2022-08-20T07:33:53.231Z,45.55
2022-08-20T07:36:24.427Z,50.03
2022-08-20T07:38:55.037Z,48.03
2022-08-20T07:41:26.944Z,45.80
2022-08-20T07:43:59.784Z,64.95
2022-08-20T07:46:31.177Z,47.30
2022-08-20T07:49:06.488Z,48.28
2022-08-20T07:51:37.819Z,67.88
2022-08-20T07:54:07.839Z,47.50
2022-08-20T07:56:37.399Z,46.17
2022-08-20T07:59:07.539Z,50.42
2022-08-20T08:01:37.864Z,51.70
2022-08-20T08:04:10.391Z,47.85
2022-08-20T08:06:45.766Z,50.13
2022-08-20T08:09:17.119Z,46.85
2022-08-20T08:11:52.864Z,42.95
2022-08-20T08:14:27.229Z,49.13
2022-08-20T08:16:58.645Z,44.97
2022-08-20T08:19:39.280Z,42.00
2022-08-20T08:22:13.128Z,42.88
2022-08-20T08:24:47.865Z,45.35
2022-08-20T08:27:27.067Z,41.58
2022-08-20T08:29:59.764Z,36.10
2022-08-20T08:32:32.127Z,42.20
2022-08-20T08:35:06.834Z,39.88
2022-08-20T08:37:39.282Z,42.40
2022-08-20T08:40:09.770Z,41.97
2022-08-20T08:42:49.286Z,39.60
2022-08-20T08:45:20.904Z,49.78
2022-08-20T08:47:50.357Z,38.75
2022-08-20T08:50:49.981Z,43.35
2022-08-20T08:53:20.813Z,36.85
2022-08-20T08:55:50.101Z,35.03
2022-08-20T08:58:22.963Z,34.28
2022-08-20T09:00:56.221Z,35.05
2022-08-20T09:03:31.405Z,40.53
2022-08-20T09:06:05.473Z,34.80
2022-08-20T09:08:38.573Z,30.20
2022-08-20T09:11:11.522Z,31.15
2022-08-20T09:13:43.472Z,29.52
2022-08-20T09:16:15.896Z,33.38
2022-08-20T09:18:46.796Z,40.60
2022-08-20T09:21:20.008Z,34.03
2022-08-20T09:23:50.929Z,32.78
2022-08-20T09:26:21.680Z,38.22
2022-08-20T09:28:55.389Z,29.95
2022-08-20T09:31:24.969Z,32.25
2022-08-20T09:33:55.128Z,32.15
2022-08-20T09:36:32.029Z,37.22
2022-08-20T09:39:03.466Z,44.25
2022-08-20T09:41:33.822Z,31.02
2022-08-20T09:44:04.948Z,31.30
2022-08-20T09:46:37.612Z,28.23
2022-08-20T09:49:07.847Z,28.67
2022-08-20T09:51:41.740Z,36.15
2022-08-20T09:54:12.163Z,30.58
2022-08-20T09:56:41.694Z,25.83
2022-08-20T09:59:11.135Z,24.77
2022-08-20T10:01:40.943Z,28.45
2022-08-20T10:04:11.321Z,29.23
2022-08-20T10:06:45.567Z,32.10
2022-08-20T10:09:15.295Z,36.08
2022-08-20T10:11:47.323Z,32.97
2022-08-20T10:14:16.495Z,32.03
2022-08-20T10:16:46.550Z,32.13
2022-08-20T10:19:16.576Z,29.75
2022-08-20T10:21:47.659Z,29.05
2022-08-20T10:24:17.471Z,33.50
2022-08-20T10:26:47.251Z,37.05
2022-08-20T10:29:18.108Z,31.88
2022-08-20T10:31:47.296Z,35.15
2022-08-20T10:34:19.844Z,46.55
2022-08-20T10:36:54.486Z,31.15
2022-08-20T10:39:25.195Z,35.78
2022-08-20T10:42:04.895Z,31.15
2022-08-20T10:44:34.086Z,32.70
2022-08-20T10:47:20.931Z,36.85
2022-08-20T10:49:51.383Z,29.25
2022-08-20T10:52:25.082Z,27.50
2022-08-20T10:54:55.890Z,39.38
2022-08-20T10:57:28.882Z,33.83
2022-08-20T11:00:01.350Z,33.10
2022-08-20T11:02:32.517Z,31.80
2022-08-20T11:05:01.458Z,35.78
2022-08-20T11:07:54.749Z,29.67
2022-08-20T11:10:28.789Z,47.03
2022-08-20T11:12:59.602Z,44.33
2022-08-20T11:15:31.958Z,46.25
2022-08-20T11:18:02.424Z,34.30
2022-08-20T11:20:32.429Z,36.78
2022-08-20T11:23:05.488Z,51.72
2022-08-20T11:25:35.617Z,38.55
2022-08-20T11:28:08.294Z,42.38
2022-08-20T11:30:39.833Z,28.08
2022-08-20T11:33:09.776Z,36.95
2022-08-20T11:35:48.576Z,36.25
2022-08-20T11:38:21.365Z,37.40
2022-08-20T11:40:51.553Z,29.45
2022-08-20T11:43:20.650Z,31.83
2022-08-20T11:45:53.772Z,30.00
2022-08-20T11:48:24.324Z,27.73
2022-08-20T11:50:54.685Z,29.10
2022-08-20T11:53:26.604Z,31.10
2022-08-20T11:55:56.608Z,30.50
2022-08-20T11:58:26.330Z,30.45
2022-08-20T12:00:56.263Z,25.08
2022-08-20T12:03:25.976Z,25.27
2022-08-20T12:05:58.127Z,24.23
2022-08-20T12:08:30.991Z,22.67
2022-08-20T12:11:02.695Z,22.27
2022-08-20T12:13:47.969Z,22.27
2022-08-20T12:16:18.812Z,26.30
2022-08-20T12:18:49.372Z,23.45
2022-08-20T12:21:19.427Z,44.65
2022-08-20T12:23:50.835Z,21.90
2022-08-20T12:26:20.307Z,21.27
2022-08-20T12:28:51.052Z,21.95
2022-08-20T12:31:20.950Z,28.05
2022-08-20T12:33:52.411Z,22.85
2022-08-20T12:36:22.471Z,22.17
2022-08-20T12:38:54.163Z,31.08
2022-08-20T12:41:24.295Z,19.15
2022-08-20T12:43:53.545Z,22.48
2022-08-20T12:46:30.022Z,21.90
2022-08-20T12:49:00.070Z,20.33
2022-08-20T12:51:29.244Z,21.80
2022-08-20T12:54:00.399Z,23.33
2022-08-20T12:56:30.998Z,18.42
2022-08-20T12:59:00.635Z,20.30
2022-08-20T13:01:30.137Z,21.00
2022-08-20T13:04:01.173Z,19.40
2022-08-20T13:06:32.522Z,19.23
2022-08-20T13:09:04.310Z,21.55
2022-08-20T13:11:34.946Z,19.73
2022-08-20T13:14:07.821Z,21.73
2022-08-20T13:16:39.262Z,18.75
2022-08-20T13:19:08.647Z,18.65
2022-08-20T13:21:37.882Z,15.68
2022-08-20T13:24:10.351Z,15.60
2022-08-20T13:26:39.938Z,15.98
2022-08-20T13:29:11.416Z,16.23
2022-08-20T13:31:42.126Z,16.98
2022-08-20T13:34:14.437Z,17.80
2022-08-20T13:36:43.937Z,17.65
2022-08-20T13:39:14.730Z,14.85
2022-08-20T13:41:45.805Z,13.55
2022-08-20T13:44:15.614Z,21.38
2022-08-20T13:46:45.280Z,17.52
2022-08-20T13:49:14.362Z,37.13
2022-08-20T13:51:43.318Z,17.42
2022-08-20T13:54:14.617Z,14.50
2022-08-20T13:56:46.869Z,18.67
2022-08-20T13:59:16.017Z,17.33
2022-08-20T14:01:46.319Z,22.65
2022-08-20T14:04:15.572Z,62.88
2022-08-20T14:06:46.064Z,18.38
2022-08-20T14:09:20.033Z,23.88
2022-08-20T14:11:50.740Z,20.60
2022-08-20T14:14:20.036Z,19.55
2022-08-20T14:16:50.872Z,18.92
2022-08-20T14:19:20.624Z,17.52
2022-08-20T14:21:51.828Z,45.95
2022-08-20T14:24:24.046Z,28.55
2022-08-20T14:26:54.765Z,22.90
2022-08-20T14:29:24.382Z,18.35
2022-08-20T14:31:53.564Z,20.30
2022-08-20T14:34:24.025Z,32.80
2022-08-20T14:36:54.196Z,19.23
2022-08-20T14:39:28.179Z,19.33
2022-08-20T14:41:58.364Z,24.80
2022-08-20T14:44:30.087Z,20.50
2022-08-20T14:47:02.812Z,18.05
2022-08-20T14:49:32.696Z,18.67
2022-08-20T14:52:01.803Z,17.85
2022-08-20T14:54:33.509Z,14.93
2022-08-20T14:57:03.382Z,16.13
2022-08-20T14:59:33.135Z,17.85
2022-08-20T15:02:02.768Z,20.05
2022-08-20T15:04:32.083Z,17.38
2022-08-20T15:07:08.022Z,21.70
2022-08-20T15:09:42.574Z,18.17
2022-08-20T15:12:11.843Z,18.10
2022-08-20T15:14:41.456Z,41.20
2022-08-20T15:17:12.670Z,19.27
2022-08-20T15:19:42.495Z,15.27
2022-08-20T15:22:12.295Z,15.45
2022-08-20T15:24:43.679Z,16.60
2022-08-20T15:27:22.290Z,11.43
2022-08-20T15:29:52.434Z,11.50
2022-08-20T15:32:24.439Z,12.23
2022-08-20T15:34:53.908Z,14.07
2022-08-20T15:37:26.210Z,15.55
2022-08-20T15:39:57.530Z,16.17
2022-08-20T15:42:27.111Z,14.75
2022-08-20T15:44:56.509Z,18.58
2022-08-20T15:47:29.469Z,26.92
2022-08-20T15:50:03.658Z,23.63
2022-08-20T15:52:42.356Z,18.80
2022-08-20T15:55:16.992Z,22.05
2022-08-20T15:58:01.322Z,23.15
2022-08-20T16:00:40.339Z,23.67
2022-08-20T16:03:38.562Z,27.30
2022-08-20T16:06:15.866Z,27.30
2022-08-20T16:09:03.217Z,15.18
2022-08-20T16:11:49.725Z,20.30
2022-08-20T16:14:23.425Z,15.05
2022-08-20T16:16:56.865Z,13.63
2022-08-20T16:19:48.637Z,13.55
2022-08-20T16:22:21.001Z,13.20
2022-08-20T16:24:51.867Z,13.23
2022-08-20T16:27:32.197Z,13.32
2022-08-20T16:30:06.847Z,11.45
2022-08-20T16:32:42.311Z,10.68
2022-08-20T16:35:30.073Z,13.45
2022-08-20T16:38:09.534Z,10.80
2022-08-20T16:40:49.835Z,9.55
2022-08-20T16:43:27.108Z,10.70
2022-08-20T16:46:02.056Z,11.18
2022-08-20T16:48:37.773Z,9.77
2022-08-20T16:51:12.980Z,10.57
2022-08-20T16:53:42.548Z,8.98
2022-08-20T16:56:12.451Z,13.55
2022-08-20T16:58:53.988Z,9.27
2022-08-20T17:01:28.551Z,10.38
2022-08-20T17:03:58.288Z,9.60
2022-08-20T17:06:31.112Z,10.88
2022-08-20T17:09:01.271Z,9.38
2022-08-20T17:11:33.460Z,8.98
2022-08-20T17:14:11.232Z,8.00
2022-08-20T17:16:44.625Z,11.05
2022-08-20T17:19:21.843Z,9.40
2022-08-20T17:21:53.214Z,7.55
2022-08-20T17:24:26.684Z,8.73
2022-08-20T17:27:03.614Z,7.75
2022-08-20T17:29:52.778Z,8.73
2022-08-20T17:32:26.536Z,8.27
2022-08-20T17:35:03.211Z,8.32
2022-08-20T17:37:36.202Z,11.32
2022-08-20T17:40:17.446Z,8.55
2022-08-20T17:42:51.662Z,7.63
2022-08-20T17:45:28.988Z,9.52
2022-08-20T17:48:02.830Z,9.02
2022-08-20T17:50:38.329Z,10.77
2022-08-20T17:53:23.216Z,9.07
2022-08-20T17:55:56.531Z,10.90
2022-08-20T17:58:39.362Z,9.80
2022-08-20T18:01:14.895Z,11.98
2022-08-20T18:03:44.669Z,9.50
2022-08-20T18:06:21.193Z,12.68
2022-08-20T18:09:02.373Z,13.45
2022-08-20T18:11:38.946Z,11.10
2022-08-20T18:14:25.938Z,10.45
2022-08-20T18:17:16.401Z,18.23
2022-08-20T18:20:11.632Z,26.60
2022-08-20T18:22:51.220Z,10.55
2022-08-20T18:25:32.361Z,12.32
2022-08-20T18:28:08.911Z,13.15
2022-08-20T18:30:51.778Z,11.55
2022-08-20T18:33:32.160Z,14.07
2022-08-20T18:36:12.898Z,12.13
2022-08-20T18:38:45.085Z,14.55
2022-08-20T18:41:28.465Z,15.60
2022-08-20T18:44:09.154Z,10.13
2022-08-20T18:46:39.757Z,12.15
2022-08-20T18:49:14.785Z,12.50
2022-08-20T18:51:52.285Z,11.43
2022-08-20T18:54:28.467Z,10.45
2022-08-20T18:57:06.337Z,11.57
2022-08-20T18:59:44.237Z,10.60
2022-08-20T19:02:23.794Z,11.70
2022-08-20T19:05:02.438Z,11.13
2022-08-20T19:07:48.754Z,12.95
2022-08-20T19:10:36.197Z,10.45
2022-08-20T19:13:51.397Z,12.27
2022-08-20T19:16:34.957Z,12.15
2022-08-20T19:19:04.621Z,10.23
2022-08-20T19:21:37.521Z,13.68
2022-08-20T19:24:10.138Z,16.05
2022-08-20T19:26:44.395Z,14.35
2022-08-20T19:29:17.811Z,15.20
2022-08-20T19:31:47.837Z,17.15
2022-08-20T19:34:24.860Z,16.35
2022-08-20T19:37:08.985Z,14.63
2022-08-20T19:39:53.329Z,16.23
2022-08-20T19:42:28.351Z,18.45
2022-08-20T19:45:02.156Z,16.15
2022-08-20T19:47:35.449Z,20.02
2022-08-20T19:50:21.059Z,15.52
2022-08-20T19:53:02.883Z,18.05
2022-08-20T19:55:34.439Z,15.13
2022-08-20T19:58:08.407Z,18.13
2022-08-20T20:00:43.014Z,17.70
2022-08-20T20:03:15.795Z,19.90
2022-08-20T20:05:54.471Z,18.77
2022-08-20T20:08:29.259Z,19.27
2022-08-20T20:11:03.047Z,18.00
2022-08-20T20:13:35.985Z,18.58
2022-08-20T20:16:10.939Z,18.70
2022-08-20T20:18:45.807Z,19.17
2022-08-20T20:21:19.275Z,18.67
2022-08-20T20:24:01.587Z,18.83
2022-08-20T20:26:35.526Z,19.60
2022-08-20T20:29:11.543Z,20.50
2022-08-20T20:31:49.251Z,21.90
2022-08-20T20:34:26.482Z,17.55
2022-08-20T20:37:07.103Z,17.98
2022-08-20T20:39:41.302Z,18.17
2022-08-20T20:42:14.718Z,21.90
2022-08-20T20:44:47.021Z,20.63
2022-08-20T20:47:22.023Z,18.55
2022-08-20T20:49:54.942Z,18.42
2022-08-20T20:52:30.444Z,16.92
2022-08-20T20:55:23.317Z,20.20
2022-08-20T20:57:54.028Z,18.67
2022-08-20T21:00:28.324Z,16.75
2022-08-20T21:02:58.310Z,21.65
2022-08-20T21:05:32.609Z,23.80
2022-08-20T21:08:04.457Z,27.77
2022-08-20T21:10:38.086Z,23.13
2022-08-20T21:13:10.310Z,21.98
2022-08-20T21:15:41.862Z,27.33
2022-08-20T21:18:12.100Z,25.52
2022-08-20T21:20:42.397Z,23.70
2022-08-20T21:23:11.872Z,29.88
2022-08-20T21:25:44.055Z,28.90
2022-08-20T21:28:14.282Z,29.13
2022-08-20T21:30:45.062Z,24.02
2022-08-20T21:33:15.678Z,26.65
2022-08-20T21:35:46.030Z,25.70
2022-08-20T21:38:16.221Z,26.10
2022-08-20T21:40:47.762Z,26.83
2022-08-20T21:43:18.818Z,24.27
2022-08-20T21:45:49.657Z,25.05
2022-08-20T21:48:20.778Z,28.75
2022-08-20T21:50:51.797Z,23.58
2022-08-20T21:53:22.005Z,21.40
2022-08-20T21:55:53.213Z,21.90
2022-08-20T21:58:23.313Z,19.92
2022-08-20T22:00:58.095Z,20.15
2022-08-20T22:03:31.278Z,17.73
2022-08-20T22:06:01.613Z,17.98
2022-08-20T22:08:31.544Z,21.02
2022-08-20T22:11:04.159Z,16.88
2022-08-20T22:13:36.753Z,19.88
2022-08-20T22:16:09.092Z,15.68
2022-08-20T22:18:38.431Z,16.42
2022-08-20T22:21:11.849Z,15.63
2022-08-20T22:23:41.460Z,16.50
2022-08-20T22:26:12.844Z,17.00
2022-08-20T22:28:50.906Z,15.27
2022-08-20T22:31:25.298Z,12.98
2022-08-20T22:33:55.068Z,15.90
2022-08-20T22:36:26.111Z,12.38
2022-08-20T22:38:56.370Z,11.50
2022-08-20T22:41:28.530Z,15.57
2022-08-20T22:43:59.660Z,11.68
2022-08-20T22:46:33.722Z,13.63
2022-08-20T22:49:04.731Z,11.73
2022-08-20T22:51:41.182Z,13.40
2022-08-20T22:54:14.183Z,11.07
2022-08-20T22:56:47.202Z,12.60
2022-08-20T22:59:18.414Z,13.23
2022-08-20T23:01:49.793Z,10.38
2022-08-20T23:04:25.685Z,12.00
2022-08-20T23:06:59.392Z,10.60
2022-08-20T23:09:32.258Z,10.80
2022-08-20T23:12:06.130Z,10.27
2022-08-20T23:14:38.653Z,11.70
2022-08-20T23:17:14.050Z,10.45
2022-08-20T23:19:43.962Z,9.95
2022-08-20T23:22:13.976Z,14.20
2022-08-20T23:24:43.990Z,12.85
2022-08-20T23:27:19.102Z,11.40
2022-08-20T23:29:49.790Z,10.57
2022-08-20T23:32:20.863Z,12.40
2022-08-20T23:34:51.978Z,11.52
2022-08-20T23:37:24.592Z,11.23
2022-08-20T23:39:55.468Z,12.32
2022-08-20T23:42:28.559Z,15.32
2022-08-20T23:44:58.609Z,8.98
2022-08-20T23:47:28.608Z,11.77
2022-08-20T23:49:58.680Z,12.30
2022-08-20T23:52:30.346Z,11.55
2022-08-20T23:54:59.965Z,14.85
2022-08-20T23:57:31.216Z,11.80
